createdAt,value
2022-10-21T00:01:00.969Z,4.54
2022-10-21T00:03:28.304Z,4.45
2022-10-21T00:05:56.776Z,4.24
2022-10-21T00:08:24.687Z,4.42
2022-10-21T00:10:59.055Z,4.27
2022-10-21T00:13:29.500Z,4.43
2022-10-21T00:16:09.996Z,4.44
2022-10-21T00:18:39.037Z,4.52
2022-10-21T00:21:13.600Z,4.44
2022-10-21T00:23:41.542Z,4.46
2022-10-21T00:26:08.779Z,4.52
2022-10-21T00:28:36.386Z,4.74
2022-10-21T00:31:08.697Z,4.57
2022-10-21T00:33:36.308Z,4.65
2022-10-21T00:36:04.665Z,4.59
2022-10-21T00:38:32.793Z,4.74
2022-10-21T00:41:00.941Z,4.76
2022-10-21T00:43:28.899Z,4.65
2022-10-21T00:46:07.954Z,4.78
2022-10-21T00:48:42.399Z,4.84
2022-10-21T00:51:17.944Z,4.83
2022-10-21T00:53:50.074Z,4.92
2022-10-21T00:56:25.663Z,4.86
2022-10-21T00:58:57.288Z,4.57
2022-10-21T01:01:24.598Z,4.88
2022-10-21T01:03:51.864Z,4.92
2022-10-21T01:06:25.677Z,4.93
2022-10-21T01:08:54.870Z,4.80
2022-10-21T01:11:24.085Z,5.00
2022-10-21T01:14:08.032Z,4.95
2022-10-21T01:16:48.245Z,4.97
2022-10-21T01:19:34.013Z,4.97
2022-10-21T01:22:17.045Z,4.85
2022-10-21T01:25:05.451Z,4.83
2022-10-21T01:28:15.395Z,4.68
2022-10-21T01:31:10.097Z,4.49
2022-10-21T01:34:16.941Z,4.53
2022-10-21T01:37:01.803Z,4.28
2022-10-21T01:39:46.178Z,4.15
2022-10-21T01:42:43.521Z,4.27
2022-10-21T01:45:22.469Z,4.34
2022-10-21T01:48:13.321Z,4.45
2022-10-21T01:50:52.149Z,4.32
2022-10-21T01:53:21.866Z,4.42
2022-10-21T01:55:50.725Z,4.34
2022-10-21T01:58:26.936Z,4.35
2022-10-21T02:00:57.550Z,4.28
2022-10-21T02:03:33.205Z,4.38
2022-10-21T02:06:00.576Z,4.36
2022-10-21T02:08:30.276Z,4.37
2022-10-21T02:11:01.457Z,4.50
2022-10-21T02:13:40.801Z,4.44
2022-10-21T02:16:13.310Z,4.33
2022-10-21T02:18:40.719Z,4.46
2022-10-21T02:21:21.319Z,4.54
2022-10-21T02:23:59.991Z,4.63
2022-10-21T02:26:30.912Z,4.45
2022-10-21T02:29:01.393Z,4.52
2022-10-21T02:32:01.357Z,4.37
2022-10-21T02:34:57.777Z,4.39
2022-10-21T02:37:51.149Z,4.47
2022-10-21T02:40:39.383Z,4.48
2022-10-21T02:43:18.979Z,4.26
2022-10-21T02:45:49.884Z,4.27
2022-10-21T02:48:17.251Z,4.44
2022-10-21T02:50:44.410Z,4.42
2022-10-21T02:53:13.407Z,4.28
2022-10-21T02:55:42.772Z,4.07
2022-10-21T02:58:10.137Z,4.26
2022-10-21T03:00:37.413Z,4.41
2022-10-21T03:03:04.722Z,4.37
2022-10-21T03:07:58.990Z,4.58
2022-10-21T03:10:26.258Z,4.05
2022-10-21T03:12:53.797Z,4.22
2022-10-21T03:15:21.002Z,4.66
2022-10-21T03:17:48.456Z,4.45
2022-10-21T03:20:16.206Z,4.09
2022-10-21T03:22:44.280Z,4.24
2022-10-21T03:25:11.966Z,4.25
2022-10-21T03:27:39.910Z,4.16
2022-10-21T03:30:08.702Z,4.36
2022-10-21T03:32:36.140Z,4.29
2022-10-21T03:35:03.933Z,4.48
2022-10-21T03:37:30.998Z,4.65
2022-10-21T03:39:58.009Z,4.59
2022-10-21T03:42:25.308Z,4.52
2022-10-21T03:44:52.379Z,4.30
2022-10-21T03:47:19.602Z,4.44
2022-10-21T03:49:46.716Z,4.41
2022-10-21T03:52:13.933Z,4.59
2022-10-21T03:54:41.213Z,4.55
2022-10-21T03:57:08.584Z,4.51
2022-10-21T03:59:38.201Z,4.44
2022-10-21T04:02:05.436Z,4.42
2022-10-21T04:04:33.617Z,4.19
2022-10-21T04:07:03.262Z,4.13
2022-10-21T04:09:30.404Z,4.51
2022-10-21T04:11:57.572Z,4.44
2022-10-21T04:14:24.661Z,4.57
2022-10-21T04:17:02.153Z,4.53
2022-10-21T04:19:29.777Z,4.49
2022-10-21T04:21:56.802Z,4.35
2022-10-21T04:24:24.027Z,4.47
2022-10-21T04:26:51.123Z,4.36
2022-10-21T04:29:18.188Z,4.56
2022-10-21T04:31:45.294Z,4.21
2022-10-21T04:34:12.676Z,4.44
2022-10-21T04:36:39.777Z,4.01
2022-10-21T04:39:07.078Z,4.13
2022-10-21T04:41:34.315Z,4.34
2022-10-21T04:44:03.443Z,4.07
2022-10-21T04:46:30.674Z,4.42
2022-10-21T04:48:57.787Z,4.05
2022-10-21T04:51:25.254Z,4.18
2022-10-21T04:53:52.347Z,4.18
2022-10-21T04:56:19.569Z,4.13
2022-10-21T04:58:46.620Z,3.70
2022-10-21T05:01:13.814Z,3.86
2022-10-21T05:03:41.153Z,3.90
2022-10-21T05:06:08.224Z,4.29
2022-10-21T05:08:35.465Z,4.34
2022-10-21T05:11:05.048Z,4.28
2022-10-21T05:13:42.467Z,4.21
2022-10-21T05:16:12.064Z,4.05
2022-10-21T05:18:46.730Z,4.21
2022-10-21T05:21:13.909Z,4.20
2022-10-21T05:23:41.261Z,4.35
2022-10-21T05:26:09.095Z,4.04
2022-10-21T05:28:36.715Z,4.59
2022-10-21T05:31:06.212Z,4.49
2022-10-21T05:33:33.552Z,4.66
2022-10-21T05:36:07.606Z,4.32
2022-10-21T05:38:38.341Z,4.44
2022-10-21T05:41:05.740Z,4.40
2022-10-21T05:43:32.866Z,4.36
2022-10-21T05:46:00.321Z,4.33
2022-10-21T05:48:27.425Z,4.44
2022-10-21T05:50:58.460Z,4.77
2022-10-21T05:53:26.019Z,4.58
2022-10-21T05:56:03.051Z,4.86
2022-10-21T05:58:34.610Z,4.57
2022-10-21T06:01:02.504Z,4.87
2022-10-21T06:03:32.573Z,5.06
2022-10-21T06:06:03.666Z,4.69
2022-10-21T06:08:33.393Z,4.38
2022-10-21T06:11:11.637Z,4.49
2022-10-21T06:13:39.858Z,4.65
2022-10-21T06:16:08.039Z,4.90
2022-10-21T06:18:35.450Z,4.97
2022-10-21T06:21:08.384Z,4.97
2022-10-21T06:23:36.434Z,4.87
2022-10-21T06:26:10.785Z,5.49
2022-10-21T06:28:40.797Z,5.12
2022-10-21T06:31:12.502Z,5.19
2022-10-21T06:33:42.473Z,5.32
2022-10-21T06:36:11.801Z,5.10
2022-10-21T06:38:38.884Z,5.27
2022-10-21T06:41:13.760Z,5.44
2022-10-21T06:43:42.397Z,5.28
2022-10-21T06:46:13.167Z,5.15
2022-10-21T06:48:40.890Z,5.39
2022-10-21T06:51:15.088Z,5.48
2022-10-21T06:53:43.896Z,5.44
2022-10-21T06:56:16.469Z,5.53
2022-10-21T06:58:49.071Z,5.63
2022-10-21T07:01:33.595Z,5.71
2022-10-21T07:04:06.251Z,5.59
2022-10-21T07:06:36.042Z,5.91
2022-10-21T07:09:08.693Z,5.69
2022-10-21T07:11:36.448Z,5.93
2022-10-21T07:14:04.036Z,5.37
2022-10-21T07:16:34.899Z,6.05
2022-10-21T07:19:02.098Z,6.03
2022-10-21T07:21:31.530Z,6.26
2022-10-21T07:24:00.144Z,6.19
2022-10-21T07:26:34.859Z,6.49
2022-10-21T07:29:02.617Z,6.20
2022-10-21T07:31:33.928Z,6.30
2022-10-21T07:36:34.066Z,6.38
2022-10-21T07:39:09.212Z,6.69
2022-10-21T07:41:45.861Z,6.81
2022-10-21T07:44:13.335Z,6.97
2022-10-21T07:46:44.815Z,7.10
2022-10-21T07:49:13.601Z,7.31
2022-10-21T07:51:40.964Z,7.45
2022-10-21T07:54:09.355Z,7.67
2022-10-21T07:56:43.517Z,7.17
2022-10-21T07:59:13.471Z,7.43
2022-10-21T08:01:44.762Z,7.74
2022-10-21T08:04:18.368Z,8.17
2022-10-21T08:06:47.150Z,8.36
2022-10-21T08:09:16.222Z,7.94
2022-10-21T08:11:43.756Z,8.03
2022-10-21T08:14:11.911Z,8.31
2022-10-21T08:16:40.040Z,8.21
2022-10-21T08:19:09.101Z,7.99
2022-10-21T08:21:37.798Z,8.08
2022-10-21T08:24:05.804Z,8.21
2022-10-21T08:26:33.213Z,8.16
2022-10-21T08:29:02.410Z,8.02
2022-10-21T08:31:29.491Z,8.40
2022-10-21T08:33:56.654Z,8.30
2022-10-21T08:36:28.472Z,8.41
2022-10-21T08:39:03.099Z,8.59
2022-10-21T08:41:30.058Z,8.54
2022-10-21T08:44:29.563Z,8.53
2022-10-21T08:47:25.592Z,7.88
2022-10-21T08:49:58.884Z,7.44
2022-10-21T08:52:53.230Z,7.39
2022-10-21T08:55:31.763Z,7.55
2022-10-21T08:58:01.149Z,7.92
2022-10-21T09:00:40.199Z,8.48
2022-10-21T09:03:54.673Z,7.68
2022-10-21T09:06:39.433Z,7.88
2022-10-21T09:09:34.852Z,8.28
2022-10-21T09:12:31.996Z,7.72
2022-10-21T09:15:34.260Z,7.79
2022-10-21T09:18:13.010Z,7.98
2022-10-21T09:21:31.324Z,8.45
2022-10-21T09:24:42.038Z,8.50
2022-10-21T09:27:10.795Z,8.24
2022-10-21T09:29:44.842Z,8.65
2022-10-21T09:35:20.920Z,8.58
2022-10-21T09:38:05.541Z,8.19
2022-10-21T09:40:34.060Z,7.74
2022-10-21T09:43:03.027Z,7.84
2022-10-21T09:45:43.822Z,8.03
2022-10-21T09:48:20.122Z,8.06
2022-10-21T09:50:59.464Z,8.35
2022-10-21T09:53:53.639Z,8.26
2022-10-21T09:56:34.105Z,8.46
2022-10-21T09:59:07.828Z,8.73
2022-10-21T10:01:37.534Z,8.88
2022-10-21T10:04:31.022Z,8.79
2022-10-21T10:07:19.268Z,8.84
2022-10-21T10:09:48.228Z,8.47
2022-10-21T10:12:22.841Z,8.91
2022-10-21T10:14:50.469Z,8.76
2022-10-21T10:17:31.131Z,9.15
2022-10-21T10:20:14.787Z,9.03
2022-10-21T10:22:44.227Z,9.25
2022-10-21T10:25:18.034Z,8.92
2022-10-21T10:28:16.359Z,9.40
2022-10-21T10:30:45.335Z,10.00
2022-10-21T10:33:31.457Z,9.61
2022-10-21T10:36:05.320Z,9.74
2022-10-21T10:38:35.374Z,9.92
2022-10-21T10:41:20.713Z,10.19
2022-10-21T10:43:58.629Z,9.98
2022-10-21T10:46:30.896Z,10.12
2022-10-21T10:49:06.746Z,10.24
2022-10-21T10:51:35.900Z,10.39
2022-10-21T10:54:27.275Z,10.05
2022-10-21T10:57:20.220Z,9.98
2022-10-21T10:59:49.223Z,10.66
2022-10-21T11:02:42.080Z,10.85
2022-10-21T11:06:03.377Z,11.16
2022-10-21T11:08:55.629Z,11.24
2022-10-21T11:11:35.111Z,11.28
2022-10-21T11:14:02.460Z,11.49
2022-10-21T11:17:01.254Z,11.61
2022-10-21T11:20:00.554Z,12.02
2022-10-21T11:25:45.752Z,11.64
2022-10-21T11:28:36.223Z,11.15
2022-10-21T11:31:24.949Z,10.87
2022-10-21T11:34:36.213Z,11.48
2022-10-21T11:37:31.555Z,11.92
2022-10-21T11:40:37.755Z,12.09
2022-10-21T11:43:28.654Z,11.77
2022-10-21T11:46:11.917Z,11.41
2022-10-21T11:49:03.901Z,11.79
2022-10-21T11:51:47.601Z,11.71
2022-10-21T11:55:07.958Z,12.09
2022-10-21T11:58:02.398Z,11.94
2022-10-21T12:00:49.696Z,12.34
2022-10-21T12:03:51.567Z,12.34
2022-10-21T12:06:34.952Z,12.02
2022-10-21T12:09:26.767Z,12.01
2022-10-21T12:12:21.727Z,12.43
2022-10-21T12:15:04.584Z,12.42
2022-10-21T12:20:27.365Z,12.18
2022-10-21T12:23:04.759Z,11.91
2022-10-21T12:26:04.388Z,12.55
2022-10-21T12:29:23.420Z,12.09
2022-10-21T12:32:18.279Z,12.51
2022-10-21T12:34:46.280Z,12.05
2022-10-21T12:37:46.680Z,12.19
2022-10-21T12:40:39.623Z,11.71
2022-10-21T12:43:28.832Z,12.30
2022-10-21T12:46:09.113Z,12.01
2022-10-21T12:48:43.620Z,11.92
2022-10-21T12:51:49.619Z,12.29
2022-10-21T12:54:24.323Z,12.23
2022-10-21T12:57:03.108Z,11.94
2022-10-21T12:59:37.917Z,12.01
2022-10-21T13:02:23.915Z,12.21
2022-10-21T13:05:08.875Z,12.26
2022-10-21T13:07:36.868Z,12.15
2022-10-21T13:10:08.111Z,11.96
2022-10-21T13:12:35.372Z,12.47
2022-10-21T13:15:20.699Z,12.07
2022-10-21T13:17:54.506Z,12.07
2022-10-21T13:20:21.476Z,11.99
2022-10-21T13:23:01.928Z,11.88
2022-10-21T13:25:37.181Z,12.29
2022-10-21T13:28:13.290Z,12.08
2022-10-21T13:31:01.841Z,12.01
2022-10-21T13:33:38.983Z,12.15
2022-10-21T13:36:14.155Z,11.97
2022-10-21T13:38:54.626Z,11.82
2022-10-21T13:41:34.013Z,11.89
2022-10-21T13:44:07.286Z,11.44
2022-10-21T13:46:43.841Z,11.74
2022-10-21T13:49:33.673Z,11.10
2022-10-21T13:52:00.716Z,11.23
2022-10-21T13:54:35.268Z,11.22
2022-10-21T13:57:07.941Z,11.35
2022-10-21T13:59:37.585Z,11.32
2022-10-21T14:02:05.288Z,11.21
2022-10-21T14:04:39.439Z,10.91
2022-10-21T14:07:11.260Z,11.02
2022-10-21T14:09:49.286Z,10.86
2022-10-21T14:12:34.781Z,11.21
2022-10-21T14:15:43.269Z,11.38
2022-10-21T14:18:33.579Z,11.48
2022-10-21T14:21:05.648Z,11.67
2022-10-21T14:23:33.828Z,11.63
2022-10-21T14:26:09.230Z,11.63
2022-10-21T14:28:38.010Z,12.04
2022-10-21T14:31:12.181Z,11.61
2022-10-21T14:33:45.067Z,11.35
2022-10-21T14:36:20.598Z,11.70
2022-10-21T14:38:50.430Z,11.69
2022-10-21T14:41:26.745Z,11.34
2022-10-21T14:43:59.776Z,11.23
2022-10-21T14:46:31.476Z,11.17
2022-10-21T14:49:03.460Z,11.57
2022-10-21T14:51:37.665Z,11.69
2022-10-21T14:54:07.432Z,11.31
2022-10-21T14:56:43.328Z,11.34
2022-10-21T14:59:44.560Z,11.37
2022-10-21T15:02:27.164Z,11.37
2022-10-21T15:05:23.808Z,11.17
2022-10-21T15:07:50.899Z,11.27
2022-10-21T15:10:20.603Z,11.36
2022-10-21T15:12:52.868Z,11.30
2022-10-21T15:15:41.162Z,11.10
2022-10-21T15:18:28.504Z,11.04
2022-10-21T15:21:45.666Z,10.89
2022-10-21T15:24:32.766Z,10.88
2022-10-21T15:27:01.254Z,10.90
2022-10-21T15:29:40.366Z,10.96
2022-10-21T15:32:07.558Z,11.05
2022-10-21T15:34:34.715Z,11.26
2022-10-21T15:37:01.960Z,11.00
2022-10-21T15:39:31.662Z,11.27
2022-10-21T15:42:01.615Z,10.95
2022-10-21T15:44:34.559Z,10.88
2022-10-21T15:47:05.605Z,11.09
2022-10-21T15:49:43.461Z,10.95
2022-10-21T15:52:13.081Z,11.13
2022-10-21T15:54:40.696Z,11.01
2022-10-21T15:57:22.177Z,11.27
2022-10-21T15:59:49.416Z,11.38
2022-10-21T16:02:20.094Z,11.41
2022-10-21T16:04:47.243Z,11.14
2022-10-21T16:07:34.671Z,11.27
2022-10-21T16:10:03.720Z,11.34
2022-10-21T16:12:31.309Z,11.60
2022-10-21T16:14:58.429Z,11.18
2022-10-21T16:17:28.652Z,11.42
2022-10-21T16:19:55.775Z,11.49
2022-10-21T16:22:23.129Z,11.77
2022-10-21T16:24:50.162Z,11.85
2022-10-21T16:27:26.602Z,11.87
2022-10-21T16:30:17.147Z,11.57
2022-10-21T16:32:44.526Z,11.39
2022-10-21T16:35:16.365Z,11.53
2022-10-21T16:37:44.316Z,11.40
2022-10-21T16:40:19.037Z,11.35
2022-10-21T16:42:46.229Z,11.42
2022-10-21T16:45:14.417Z,11.19
2022-10-21T16:47:52.967Z,11.21
2022-10-21T16:50:45.297Z,11.12
2022-10-21T16:53:13.817Z,11.16
2022-10-21T16:55:41.217Z,10.99
2022-10-21T16:58:08.499Z,11.12
2022-10-21T17:00:36.282Z,11.01
2022-10-21T17:03:04.253Z,10.96
2022-10-21T17:08:06.233Z,11.05
2022-10-21T17:10:33.403Z,11.07
2022-10-21T17:13:01.663Z,11.14
2022-10-21T17:15:29.141Z,10.93
2022-10-21T17:17:56.755Z,10.93
2022-10-21T17:20:24.089Z,11.15
2022-10-21T17:22:51.124Z,11.05
2022-10-21T17:25:18.571Z,11.27
2022-10-21T17:27:45.724Z,11.13
2022-10-21T17:30:12.816Z,10.94
2022-10-21T17:32:39.885Z,11.23
2022-10-21T17:35:07.608Z,11.16
2022-10-21T17:37:34.695Z,11.21
2022-10-21T17:40:01.842Z,11.01
2022-10-21T17:42:28.903Z,10.82
2022-10-21T17:44:58.710Z,10.79
2022-10-21T17:47:25.990Z,10.90
2022-10-21T17:49:53.099Z,10.96
2022-10-21T17:52:20.215Z,10.94
2022-10-21T17:54:47.336Z,10.95
2022-10-21T17:57:15.179Z,10.85
2022-10-21T17:59:42.799Z,10.73
2022-10-21T18:02:10.259Z,10.63
2022-10-21T18:04:37.979Z,10.72
2022-10-21T18:07:08.704Z,10.70
2022-10-21T18:09:37.338Z,10.67
2022-10-21T18:12:09.476Z,10.73
2022-10-21T18:14:37.101Z,10.65
2022-10-21T18:17:04.575Z,10.43
2022-10-21T18:19:31.756Z,10.40
2022-10-21T18:22:01.298Z,10.38
2022-10-21T18:24:28.551Z,10.17
2022-10-21T18:26:58.147Z,9.91
2022-10-21T18:29:25.340Z,10.04
2022-10-21T18:31:56.451Z,9.94
2022-10-21T18:34:27.137Z,10.39
2022-10-21T18:36:54.270Z,10.38
2022-10-21T18:39:21.594Z,10.32
2022-10-21T18:41:48.642Z,10.33
2022-10-21T18:44:15.860Z,10.17
2022-10-21T18:46:43.682Z,10.27
2022-10-21T18:49:16.027Z,10.24
2022-10-21T18:51:43.110Z,10.49
2022-10-21T18:54:12.644Z,10.44
2022-10-21T18:56:41.170Z,10.37
2022-10-21T18:59:10.798Z,10.47
2022-10-21T19:01:39.725Z,10.52
2022-10-21T19:04:07.276Z,10.39
2022-10-21T19:06:45.451Z,10.48
2022-10-21T19:09:20.386Z,10.45
2022-10-21T19:11:47.798Z,10.34
2022-10-21T19:14:16.402Z,10.23
2022-10-21T19:16:45.197Z,10.49
2022-10-21T19:19:13.402Z,10.36
2022-10-21T19:21:40.732Z,10.62
2022-10-21T19:24:08.549Z,10.53
2022-10-21T19:26:38.166Z,10.77
2022-10-21T19:29:17.832Z,10.82
2022-10-21T19:34:21.794Z,11.00
2022-10-21T19:36:50.137Z,11.03
2022-10-21T19:39:17.466Z,10.94
2022-10-21T19:41:47.492Z,11.00
2022-10-21T19:44:14.972Z,11.14
2022-10-21T19:46:46.873Z,10.99
2022-10-21T19:49:15.207Z,11.14
2022-10-21T19:51:42.308Z,11.22
2022-10-21T19:54:33.314Z,11.36
2022-10-21T19:57:04.991Z,11.17
2022-10-21T19:59:35.934Z,11.05
2022-10-21T20:02:06.655Z,11.18
2022-10-21T20:04:35.324Z,11.19
2022-10-21T20:07:03.605Z,11.37
2022-10-21T20:09:32.814Z,11.30
2022-10-21T20:12:02.892Z,11.19
2022-10-21T20:14:30.034Z,11.08
2022-10-21T20:16:57.138Z,11.06
2022-10-21T20:19:24.310Z,10.76
2022-10-21T20:21:51.402Z,10.98
2022-10-21T20:24:20.882Z,10.94
2022-10-21T20:26:51.375Z,10.88
2022-10-21T20:29:20.770Z,10.83
2022-10-21T20:31:52.077Z,11.17
2022-10-21T20:34:19.312Z,11.15
2022-10-21T20:36:46.431Z,11.36
2022-10-21T20:39:13.805Z,11.46
2022-10-21T20:41:41.440Z,11.41
2022-10-21T20:44:18.278Z,11.32
2022-10-21T20:46:46.517Z,11.32
2022-10-21T20:49:16.005Z,11.43
2022-10-21T20:51:43.421Z,11.47
2022-10-21T20:54:15.866Z,11.28
2022-10-21T20:56:43.435Z,11.55
2022-10-21T20:59:15.567Z,11.42
2022-10-21T21:01:46.147Z,11.44
2022-10-21T21:04:16.508Z,11.51
2022-10-21T21:06:49.812Z,11.64
2022-10-21T21:12:08.283Z,11.74
2022-10-21T21:14:35.799Z,11.55
2022-10-21T21:17:06.225Z,11.31
2022-10-21T21:19:35.949Z,11.64
2022-10-21T21:22:05.080Z,11.74
2022-10-21T21:24:32.662Z,11.66
2022-10-21T21:26:59.778Z,11.73
2022-10-21T21:29:43.357Z,11.78
2022-10-21T21:32:10.637Z,11.34
2022-10-21T21:34:40.990Z,11.75
2022-10-21T21:37:11.416Z,11.23
2022-10-21T21:39:38.505Z,11.40
2022-10-21T21:42:08.579Z,11.33
2022-10-21T21:44:38.092Z,11.35
2022-10-21T21:47:05.309Z,11.44
2022-10-21T21:49:32.573Z,11.59
2022-10-21T21:52:02.294Z,11.65
2022-10-21T21:54:29.433Z,11.55
2022-10-21T21:57:26.425Z,11.73
2022-10-21T21:59:48.781Z,11.55
2022-10-21T22:02:15.843Z,11.48
2022-10-21T22:04:46.023Z,11.21
2022-10-21T22:07:13.506Z,11.20
2022-10-21T22:09:40.787Z,11.16
2022-10-21T22:12:08.730Z,11.24
2022-10-21T22:14:42.803Z,11.28
2022-10-21T22:17:09.965Z,11.06
2022-10-21T22:19:39.446Z,11.27
2022-10-21T22:22:09.013Z,11.45
2022-10-21T22:24:36.376Z,11.51
2022-10-21T22:27:05.922Z,11.64
2022-10-21T22:29:32.992Z,11.68
2022-10-21T22:32:00.454Z,11.66
2022-10-21T22:34:27.693Z,11.76
2022-10-21T22:36:54.809Z,11.57
2022-10-21T22:39:21.869Z,11.47
2022-10-21T22:41:51.414Z,11.36
2022-10-21T22:44:22.100Z,11.50
2022-10-21T22:46:54.498Z,11.20
2022-10-21T22:49:21.642Z,11.26
2022-10-21T22:54:43.260Z,11.41
2022-10-21T22:57:10.294Z,10.99
2022-10-21T22:59:38.124Z,11.32
2022-10-21T23:02:05.498Z,11.34
2022-10-21T23:04:32.696Z,11.60
2022-10-21T23:06:59.820Z,11.53
2022-10-21T23:09:26.954Z,11.50
2022-10-21T23:11:54.004Z,11.28
2022-10-21T23:14:21.575Z,11.49
2022-10-21T23:16:48.779Z,11.77
2022-10-21T23:19:15.932Z,11.61
2022-10-21T23:21:43.091Z,11.70
2022-10-21T23:24:13.223Z,11.75
2022-10-21T23:26:40.432Z,11.99
2022-10-21T23:29:07.679Z,12.09
2022-10-21T23:31:34.832Z,12.08
2022-10-21T23:34:02.915Z,12.19
2022-10-21T23:36:30.114Z,12.31
2022-10-21T23:38:57.688Z,12.38
2022-10-21T23:41:25.148Z,12.44
2022-10-21T23:43:52.436Z,12.52
2022-10-21T23:46:24.398Z,12.55
2022-10-21T23:48:51.595Z,12.54
2022-10-21T23:51:19.387Z,12.58
2022-10-21T23:53:46.984Z,12.58
2022-10-21T23:56:14.299Z,12.52
2022-10-21T23:58:41.572Z,12.60
